Time;durP1;ratioP1;P1;durP2;ratioP2;P2;SDS_P1;SDS_P2;PMS_P1;PMS_P2;Temp;Humidity;BMP_temperature;BMP_pressure;BME280_temperature;BME280_humidity;BME280_pressure;Samples;Min_cycle;Max_cycle;Signal;HPM_P1;HPM_P2
2023/09/09 00:01:08;;;;;;;5.93;5.32;;;25.70;64.90;;;;;;5080304;28;20089;-79
2023/09/09 00:03:37;;;;;;;6.03;5.18;;;25.70;65.00;;;;;;5097053;28;20023;-78
2023/09/09 00:06:10;;;;;;;5.75;5.07;;;25.70;65.00;;;;;;5081471;28;20038;-78
2023/09/09 00:08:36;;;;;;;6.18;5.25;;;25.70;65.10;;;;;;5097694;28;20036;-78
2023/09/09 00:11:02;;;;;;;5.75;4.82;;;25.60;65.00;;;;;;5080886;28;20059;-78
2023/09/09 00:13:28;;;;;;;6.05;5.38;;;25.60;65.00;;;;;;5081001;28;20498;-78
2023/09/09 00:15:54;;;;;;;5.90;5.00;;;25.50;64.90;;;;;;5115770;28;20055;-78
2023/09/09 00:18:23;;;;;;;5.55;4.63;;;25.60;65.10;;;;;;5115644;28;20118;-79
2023/09/09 00:20:49;;;;;;;5.68;4.85;;;25.50;65.00;;;;;;5097697;28;20134;-78
2023/09/09 00:23:15;;;;;;;6.18;5.50;;;25.50;65.10;;;;;;5097321;28;20118;-78
2023/09/09 00:25:42;;;;;;;5.78;5.18;;;25.50;65.10;;;;;;5097382;28;20152;-78
2023/09/09 00:28:10;;;;;;;5.97;5.07;;;25.50;65.10;;;;;;5097124;28;20143;-79
2023/09/09 00:30:36;;;;;;;6.35;5.13;;;25.40;65.10;;;;;;5080741;28;20486;-78
2023/09/09 00:33:03;;;;;;;6.57;5.32;;;25.40;65.10;;;;;;5115644;28;20028;-78
2023/09/09 00:35:29;;;;;;;5.95;4.80;;;25.40;65.10;;;;;;5080230;28;20361;-78
2023/09/09 00:37:55;;;;;;;6.07;5.03;;;25.40;65.20;;;;;;5080534;28;20357;-79
2023/09/09 00:40:21;;;;;;;5.93;5.07;;;25.30;65.10;;;;;;5096991;28;20037;-79
2023/09/09 00:42:47;;;;;;;6.45;5.70;;;25.30;65.10;;;;;;5080298;28;20471;-78
2023/09/09 00:45:13;;;;;;;7.10;5.63;;;25.30;65.20;;;;;;5080157;28;20387;-78
2023/09/09 00:47:40;;;;;;;5.28;4.78;;;25.30;65.20;;;;;;5079877;28;20027;-79
2023/09/09 00:50:10;;;;;;;5.82;4.93;;;25.30;65.30;;;;;;5080221;28;20035;-79
2023/09/09 00:52:39;;;;;;;5.40;4.75;;;25.20;65.20;;;;;;5096539;28;20031;-78
2023/09/09 00:55:11;;;;;;;6.35;5.15;;;25.20;65.20;;;;;;5079993;28;20036;-79
2023/09/09 00:57:37;;;;;;;5.82;5.05;;;25.20;65.20;;;;;;5096559;28;20027;-78
2023/09/09 01:00:09;;;;;;;7.82;5.97;;;25.10;65.10;;;;;;5063275;28;20046;-79
2023/09/09 01:02:41;;;;;;;5.65;4.70;;;25.10;65.20;;;;;;5079675;28;20061;-78
2023/09/09 01:05:08;;;;;;;5.78;5.05;;;25.10;65.30;;;;;;5079891;28;20399;-78
2023/09/09 01:07:48;;;;;;;6.03;5.30;;;25.10;65.30;;;;;;5079375;28;20024;-78
2023/09/09 01:10:18;;;;;;;6.45;5.38;;;25.10;65.40;;;;;;5079747;28;20044;-79
2023/09/09 01:12:44;;;;;;;5.88;4.82;;;25.00;65.30;;;;;;5079735;28;20028;-78
2023/09/09 01:15:11;;;;;;;5.60;4.70;;;25.00;65.30;;;;;;5096076;28;20088;-79
2023/09/09 01:17:38;;;;;;;5.78;5.00;;;25.00;65.40;;;;;;5096476;28;20032;-79
2023/09/09 01:20:15;;;;;;;6.35;5.43;;;24.90;65.40;;;;;;5079573;28;20063;-79
2023/09/09 01:22:48;;;;;;;5.70;4.90;;;24.90;65.50;;;;;;5095983;28;20072;-78
2023/09/09 01:25:16;;;;;;;5.95;5.07;;;24.90;65.50;;;;;;5096415;28;20032;-79
2023/09/09 01:27:42;;;;;;;6.30;5.50;;;24.80;65.50;;;;;;5096438;28;20060;-79
2023/09/09 01:30:09;;;;;;;5.40;4.85;;;24.80;65.50;;;;;;5062899;28;20032;-79
2023/09/09 01:32:35;;;;;;;6.22;5.40;;;24.80;65.50;;;;;;5096021;28;20036;-79
2023/09/09 01:35:06;;;;;;;6.18;5.10;;;24.80;65.50;;;;;;5079217;28;20100;-78
2023/09/09 01:37:33;;;;;;;6.05;5.45;;;24.80;65.50;;;;;;5063317;28;20036;-78
2023/09/09 01:40:08;;;;;;;5.68;5.07;;;24.80;65.60;;;;;;5096190;28;20031;-79
2023/09/09 01:42:34;;;;;;;6.20;5.47;;;24.70;65.60;;;;;;5095796;28;20468;-79
2023/09/09 01:45:00;;;;;;;6.43;5.53;;;24.70;65.60;;;;;;5096176;28;20035;-79
2023/09/09 01:47:26;;;;;;;7.13;5.72;;;24.70;65.60;;;;;;5096605;28;20032;-79
2023/09/09 01:49:51;;;;;;;7.18;5.75;;;24.60;65.60;;;;;;5095779;28;20027;-79
2023/09/09 01:52:18;;;;;;;6.20;5.13;;;24.60;65.60;;;;;;5079161;28;20032;-78
2023/09/09 01:54:43;;;;;;;5.82;4.88;;;24.60;65.70;;;;;;5095735;28;20122;-79
2023/09/09 01:57:09;;;;;;;6.07;5.07;;;24.60;65.70;;;;;;5078829;28;20476;-78
2023/09/09 01:59:35;;;;;;;6.10;5.45;;;24.60;65.70;;;;;;5078703;28;20032;-78
2023/09/09 02:02:02;;;;;;;5.72;5.13;;;24.50;65.70;;;;;;5078654;28;20494;-78
2023/09/09 02:04:28;;;;;;;6.90;5.80;;;24.50;65.80;;;;;;5078584;28;20051;-78
2023/09/09 02:06:53;;;;;;;6.47;5.15;;;24.50;65.80;;;;;;5079059;28;20502;-79
2023/09/09 02:09:19;;;;;;;7.15;5.72;;;24.50;65.80;;;;;;5078388;28;20506;-79
2023/09/09 02:11:45;;;;;;;6.63;5.57;;;24.40;65.80;;;;;;5094906;28;20399;-79
2023/09/09 02:14:11;;;;;;;6.20;5.60;;;24.40;65.80;;;;;;5078966;28;20497;-78
2023/09/09 02:16:36;;;;;;;6.13;5.53;;;24.40;65.90;;;;;;5094953;28;20086;-78
2023/09/09 02:19:03;;;;;;;6.20;5.47;;;24.40;65.80;;;;;;5077941;28;20084;-78
2023/09/09 02:21:29;;;;;;;5.40;4.85;;;24.40;65.90;;;;;;5095139;28;20027;-79
2023/09/09 02:23:55;;;;;;;6.53;5.82;;;24.40;65.90;;;;;;5095685;28;20039;-79
2023/09/09 02:26:21;;;;;;;6.05;5.45;;;24.30;65.90;;;;;;5095361;28;20035;-79
2023/09/09 02:28:49;;;;;;;6.13;5.50;;;24.30;65.90;;;;;;5095226;28;20140;-78
2023/09/09 02:31:15;;;;;;;6.22;5.38;;;24.30;66.00;;;;;;5078278;28;20039;-79
2023/09/09 02:33:41;;;;;;;6.70;5.78;;;24.30;66.00;;;;;;5094748;28;20533;-79
2023/09/09 02:36:07;;;;;;;6.28;5.68;;;24.20;66.00;;;;;;5078346;28;20031;-78
2023/09/09 02:38:34;;;;;;;7.38;5.85;;;24.20;66.00;;;;;;5077862;28;20050;-78
2023/09/09 02:40:59;;;;;;;7.15;5.93;;;24.20;66.70;;;;;;5078327;28;20051;-79
2023/09/09 02:43:25;;;;;;;5.80;5.13;;;24.20;66.10;;;;;;5096203;28;20062;-77
2023/09/09 02:45:51;;;;;;;6.13;5.03;;;24.10;66.10;;;;;;5095644;28;20455;-79
2023/09/09 02:48:17;;;;;;;6.40;5.45;;;24.10;66.10;;;;;;5113507;28;20051;-78
2023/09/09 02:50:43;;;;;;;6.40;5.35;;;24.10;66.10;;;;;;5095193;28;20031;-78
2023/09/09 02:53:09;;;;;;;6.43;5.55;;;24.10;66.20;;;;;;5061929;28;20027;-79
2023/09/09 02:55:34;;;;;;;7.05;5.95;;;24.00;66.10;;;;;;5077912;28;20049;-79
2023/09/09 02:58:00;;;;;;;6.63;5.78;;;24.00;66.10;;;;;;5094935;28;20050;-78
2023/09/09 03:00:26;;;;;;;6.30;5.30;;;24.00;66.20;;;;;;5078048;28;20032;-78
2023/09/09 03:02:52;;;;;;;6.40;5.68;;;24.00;66.30;;;;;;5078016;28;20035;-78
2023/09/09 03:05:18;;;;;;;6.25;5.32;;;24.00;66.30;;;;;;5094954;28;20077;-79
2023/09/09 03:07:45;;;;;;;6.07;5.30;;;24.00;66.30;;;;;;5094820;28;20172;-78
2023/09/09 03:10:11;;;;;;;6.75;6.05;;;23.90;66.30;;;;;;5094457;28;20031;-78
2023/09/09 03:12:37;;;;;;;6.07;5.30;;;23.90;66.30;;;;;;5094727;28;20024;-79
2023/09/09 03:15:05;;;;;;;6.53;5.90;;;23.80;66.30;;;;;;5078223;28;20028;-78
2023/09/09 03:17:31;;;;;;;6.57;5.55;;;23.90;66.40;;;;;;5078165;28;20024;-78
2023/09/09 03:19:58;;;;;;;5.72;4.95;;;23.80;66.40;;;;;;5094756;28;20028;-78
2023/09/09 03:22:24;;;;;;;5.97;5.38;;;23.80;66.40;;;;;;5094837;28;20228;-78
2023/09/09 03:24:50;;;;;;;6.60;5.47;;;23.80;66.40;;;;;;5094687;28;20030;-78
2023/09/09 03:27:17;;;;;;;6.40;5.65;;;23.80;66.40;;;;;;5078353;28;20373;-78
2023/09/09 03:29:43;;;;;;;6.05;5.45;;;23.80;66.50;;;;;;5077323;28;20046;-78
2023/09/09 03:32:09;;;;;;;5.88;5.15;;;23.70;66.50;;;;;;5064903;28;20043;-79
2023/09/09 03:34:35;;;;;;;6.60;5.38;;;23.70;66.50;;;;;;5116828;28;20035;-78
2023/09/09 03:37:00;;;;;;;6.85;6.05;;;23.70;66.60;;;;;;5098659;28;20032;-79
2023/09/09 03:39:27;;;;;;;6.57;5.88;;;23.70;66.50;;;;;;5098588;28;20039;-78
2023/09/09 03:41:53;;;;;;;6.13;5.10;;;23.60;66.50;;;;;;5081203;28;20100;-78
2023/09/09 03:44:19;;;;;;;6.28;5.57;;;23.60;66.60;;;;;;5081466;28;20679;-78
2023/09/09 03:46:46;;;;;;;6.53;5.25;;;23.60;66.60;;;;;;5081623;28;20156;-78
2023/09/09 03:49:12;;;;;;;5.93;5.03;;;23.60;66.60;;;;;;5116440;28;20142;-79
2023/09/09 03:51:38;;;;;;;6.40;5.72;;;23.60;66.60;;;;;;5098009;28;20039;-78
2023/09/09 03:54:05;;;;;;;6.55;5.63;;;23.60;66.70;;;;;;5098319;28;20534;-78
2023/09/09 03:56:31;;;;;;;6.68;5.68;;;23.50;66.70;;;;;;5098040;28;20039;-78
2023/09/09 03:58:56;;;;;;;6.28;5.68;;;23.50;66.70;;;;;;5081083;28;20181;-79
2023/09/09 04:01:22;;;;;;;6.88;5.35;;;23.50;66.70;;;;;;5080825;28;20480;-78
2023/09/09 04:03:48;;;;;;;6.07;5.03;;;23.50;66.80;;;;;;5097980;28;20031;-79
2023/09/09 04:06:17;;;;;;;5.95;5.22;;;23.50;66.80;;;;;;5098114;28;20035;-78
2023/09/09 04:08:43;;;;;;;5.85;5.25;;;23.40;66.70;;;;;;5080703;28;20118;-78
2023/09/09 04:11:09;;;;;;;6.65;5.95;;;23.40;66.70;;;;;;5097794;28;20039;-78
2023/09/09 04:13:38;;;;;;;6.20;5.43;;;23.40;66.70;;;;;;5097574;28;20024;-78
2023/09/09 04:16:04;;;;;;;5.97;5.38;;;23.40;66.80;;;;;;5097502;28;20077;-78
2023/09/09 04:18:30;;;;;;;6.25;5.32;;;23.40;66.80;;;;;;5080918;28;20544;-78
2023/09/09 04:20:56;;;;;;;6.65;5.40;;;23.30;66.80;;;;;;5080395;28;20247;-78
2023/09/09 04:23:22;;;;;;;6.15;5.55;;;23.30;66.80;;;;;;5097568;28;20036;-78
2023/09/09 04:25:47;;;;;;;6.70;5.93;;;23.30;66.80;;;;;;5097336;28;20031;-78
2023/09/09 04:28:14;;;;;;;6.40;5.80;;;23.30;66.90;;;;;;5097459;28;20487;-78
2023/09/09 04:30:42;;;;;;;6.45;5.40;;;23.30;66.90;;;;;;5080589;28;20036;-80
2023/09/09 04:33:12;;;;;;;6.07;5.25;;;23.30;66.90;;;;;;5097451;28;20031;-78
2023/09/09 04:35:44;;;;;;;6.03;5.43;;;23.20;66.90;;;;;;5097495;28;20139;-79
2023/09/09 04:38:11;;;;;;;6.57;5.88;;;23.20;67.00;;;;;;5097314;28;20036;-79
2023/09/09 04:40:40;;;;;;;7.13;6.00;;;23.20;67.00;;;;;;5097175;28;20376;-78
2023/09/09 04:43:07;;;;;;;6.63;5.55;;;23.10;66.90;;;;;;5097161;28;20035;-78
2023/09/09 04:45:34;;;;;;;6.15;5.38;;;23.10;67.00;;;;;;5064200;28;20464;-79
2023/09/09 04:48:00;;;;;;;6.68;5.82;;;23.10;67.00;;;;;;5096454;28;20047;-78
2023/09/09 04:50:26;;;;;;;7.38;6.57;;;23.10;67.00;;;;;;5097303;28;20130;-79
2023/09/09 04:52:52;;;;;;;6.68;6.00;;;23.00;67.00;;;;;;5080185;28;20031;-78
2023/09/09 04:55:18;;;;;;;7.03;5.97;;;23.00;67.00;;;;;;5115385;28;20084;-79
2023/09/09 04:57:44;;;;;;;6.88;6.18;;;23.00;67.00;;;;;;5080229;28;20493;-78
2023/09/09 05:00:10;;;;;;;7.82;7.03;;;23.00;67.10;;;;;;5097105;28;20038;-78
2023/09/09 05:02:39;;;;;;;8.52;7.03;;;23.00;67.10;;;;;;5080528;28;20024;-78
2023/09/09 05:05:06;;;;;;;7.97;7.18;;;22.90;67.10;;;;;;5079845;28;20020;-78
2023/09/09 05:07:36;;;;;;;8.02;7.22;;;22.90;67.20;;;;;;5083695;28;20376;-78
2023/09/09 05:10:05;;;;;;;7.93;7.13;;;22.90;67.20;;;;;;5087204;28;20494;-77
2023/09/09 05:12:33;;;;;;;8.60;7.47;;;22.90;67.20;;;;;;5104583;28;20055;-79
2023/09/09 05:14:59;;;;;;;8.55;7.65;;;22.90;67.20;;;;;;5082711;28;20387;-78
2023/09/09 05:17:25;;;;;;;9.07;7.88;;;22.90;67.30;;;;;;5097575;28;20030;-78
2023/09/09 05:19:52;;;;;;;8.38;7.53;;;22.80;67.30;;;;;;5096285;28;20077;-78
2023/09/09 05:22:17;;;;;;;8.85;7.95;;;22.80;67.30;;;;;;5063230;28;20119;-76
2023/09/09 05:24:43;;;;;;;9.43;8.30;;;22.80;67.30;;;;;;5079740;28;20122;-76
2023/09/09 05:27:09;;;;;;;8.80;7.97;;;22.80;67.30;;;;;;5079047;28;20468;-76
2023/09/09 05:29:35;;;;;;;9.95;8.65;;;22.80;67.40;;;;;;5095606;28;20057;-79
2023/09/09 05:32:01;;;;;;;9.95;8.32;;;22.70;67.40;;;;;;5079042;28;20032;-78
2023/09/09 05:34:27;;;;;;;9.88;8.88;;;22.70;67.40;;;;;;5079273;28;20039;-76
2023/09/09 05:36:53;;;;;;;10.60;9.48;;;22.70;67.50;;;;;;5079026;28;20032;-76
2023/09/09 05:39:19;;;;;;;10.65;9.57;;;22.70;67.60;;;;;;5096194;28;20572;-76
2023/09/09 05:41:45;;;;;;;9.93;8.93;;;22.70;67.60;;;;;;5079360;28;20055;-77
2023/09/09 05:44:12;;;;;;;10.65;9.57;;;22.60;67.60;;;;;;5062810;28;20152;-78
2023/09/09 05:46:38;;;;;;;11.30;10.20;;;22.60;67.70;;;;;;5096159;28;20515;-78
2023/09/09 05:49:04;;;;;;;11.48;10.35;;;22.60;67.70;;;;;;5078318;28;20047;-77
2023/09/09 05:51:29;;;;;;;11.23;10.05;;;22.60;67.80;;;;;;5079192;28;20036;-78
2023/09/09 05:53:55;;;;;;;10.40;9.30;;;22.60;67.80;;;;;;5078210;28;20475;-78
2023/09/09 05:56:21;;;;;;;10.75;9.70;;;22.60;67.80;;;;;;5079099;28;20468;-77
2023/09/09 05:58:47;;;;;;;11.60;10.40;;;22.60;67.90;;;;;;5096086;28;20119;-78
2023/09/09 06:01:13;;;;;;;12.85;11.55;;;22.60;67.90;;;;;;5078830;28;20036;-77
2023/09/09 06:03:39;;;;;;;11.23;10.07;;;22.50;67.90;;;;;;5078810;28;20387;-77
2023/09/09 06:06:05;;;;;;;12.43;11.13;;;22.50;67.90;;;;;;5078483;28;20031;-77
2023/09/09 06:08:31;;;;;;;11.82;10.70;;;22.50;67.90;;;;;;5078716;28;20035;-78
2023/09/09 06:10:57;;;;;;;12.23;10.93;;;22.50;67.90;;;;;;5095295;28;20051;-77
2023/09/09 06:13:23;;;;;;;13.02;11.73;;;22.50;68.00;;;;;;5078488;28;20082;-78
2023/09/09 06:15:49;;;;;;;12.77;11.48;;;22.50;68.20;;;;;;5078592;28;20381;-77
2023/09/09 06:18:15;;;;;;;12.20;11.00;;;22.60;68.10;;;;;;5078495;28;20108;-77
2023/09/09 06:20:52;;;;;;;13.30;11.93;;;22.60;68.10;;;;;;5078555;28;20031;-77
2023/09/09 06:23:19;;;;;;;12.35;11.07;;;22.50;68.10;;;;;;5078573;28;20130;-77
2023/09/09 06:25:45;;;;;;;12.45;11.23;;;22.60;68.10;;;;;;5095250;28;20564;-77
2023/09/09 06:28:11;;;;;;;11.95;10.75;;;22.50;68.10;;;;;;5078396;28;20472;-77
2023/09/09 06:30:44;;;;;;;12.10;10.90;;;22.50;68.10;;;;;;5078436;28;20032;-78
2023/09/09 06:33:10;;;;;;;12.80;11.50;;;22.50;68.20;;;;;;5078159;28;20055;-79
2023/09/09 06:35:36;;;;;;;12.45;11.25;;;22.50;68.20;;;;;;5095242;28;20111;-79
2023/09/09 06:38:03;;;;;;;12.48;11.23;;;22.50;68.30;;;;;;5094782;28;20156;-78
2023/09/09 06:40:31;;;;;;;12.40;11.20;;;22.50;68.30;;;;;;5095289;28;20103;-78
2023/09/09 06:42:57;;;;;;;11.48;10.32;;;22.50;68.30;;;;;;5113649;28;20028;-78
2023/09/09 06:45:23;;;;;;;13.18;11.88;;;22.50;68.40;;;;;;5078159;28;20038;-78
2023/09/09 06:47:49;;;;;;;12.07;10.85;;;22.50;68.30;;;;;;5078156;28;20110;-78
2023/09/09 06:50:14;;;;;;;13.10;11.80;;;22.50;68.30;;;;;;5113457;28;20048;-78
2023/09/09 06:52:40;;;;;;;13.00;11.70;;;22.50;68.40;;;;;;5094933;28;20040;-77
2023/09/09 06:55:07;;;;;;;12.02;10.82;;;22.50;68.40;;;;;;5095280;28;20055;-78
2023/09/09 06:57:32;;;;;;;12.52;11.27;;;22.50;68.40;;;;;;5077887;28;20118;-78
2023/09/09 06:59:58;;;;;;;12.93;11.63;;;22.50;68.50;;;;;;5094777;28;20502;-78
2023/09/09 07:02:24;;;;;;;12.25;10.98;;;22.50;68.50;;;;;;5060973;28;20040;-77
2023/09/09 07:04:50;;;;;;;13.35;11.95;;;22.60;68.50;;;;;;5079957;28;20383;-78
2023/09/09 07:07:16;;;;;;;12.45;11.27;;;22.60;68.50;;;;;;5082023;28;20069;-77
2023/09/09 07:09:41;;;;;;;13.40;12.10;;;22.60;68.60;;;;;;5099219;28;20043;-77
2023/09/09 07:12:10;;;;;;;12.63;11.38;;;22.60;68.60;;;;;;5117188;28;20031;-79
2023/09/09 07:14:36;;;;;;;12.55;11.30;;;22.60;68.60;;;;;;5098795;28;20102;-79
2023/09/09 07:17:03;;;;;;;13.13;11.85;;;22.60;68.60;;;;;;5117068;28;20031;-81
2023/09/09 07:19:29;;;;;;;13.18;11.88;;;22.60;68.60;;;;;;5098704;28;20028;-79
2023/09/09 07:21:55;;;;;;;12.95;11.65;;;22.60;68.60;;;;;;5064960;28;20418;-79
2023/09/09 07:24:21;;;;;;;13.23;11.93;;;22.60;68.70;;;;;;5098189;28;20077;-78
2023/09/09 07:26:46;;;;;;;13.57;12.23;;;22.60;68.70;;;;;;5081817;28;20081;-78
2023/09/09 07:29:12;;;;;;;13.25;11.93;;;22.60;68.70;;;;;;5081020;28;20163;-79
2023/09/09 07:31:38;;;;;;;13.18;11.77;;;22.60;68.70;;;;;;5098781;28;20027;-79
2023/09/09 07:34:03;;;;;;;13.90;12.50;;;22.60;68.70;;;;;;5081910;28;20480;-80
2023/09/09 07:36:29;;;;;;;13.00;11.75;;;22.60;68.70;;;;;;5081590;28;20028;-78
2023/09/09 07:38:55;;;;;;;14.75;13.27;;;22.70;68.80;;;;;;5098599;28;20498;-78
2023/09/09 07:41:24;;;;;;;13.88;12.52;;;22.70;68.80;;;;;;5098162;28;20027;-78
2023/09/09 07:43:50;;;;;;;13.27;11.98;;;22.70;68.90;;;;;;5116408;28;20027;-79
2023/09/09 07:46:16;;;;;;;13.73;12.32;;;22.70;68.90;;;;;;5081113;28;20110;-78
2023/09/09 07:48:41;;;;;;;13.25;11.93;;;22.70;68.90;;;;;;5097912;28;20381;-78
2023/09/09 07:51:07;;;;;;;13.90;12.48;;;22.70;68.90;;;;;;5097738;28;20050;-80
2023/09/09 07:53:33;;;;;;;14.88;13.38;;;22.70;68.90;;;;;;5116209;28;20369;-79
2023/09/09 07:55:59;;;;;;;14.55;12.95;;;22.70;68.90;;;;;;5081437;28;20035;-79
2023/09/09 07:58:25;;;;;;;15.80;13.95;;;22.70;68.90;;;;;;5080993;28;20035;-79
2023/09/09 08:01:03;;;;;;;15.18;13.52;;;22.80;68.90;;;;;;5097835;28;20546;-79
2023/09/09 08:03:29;;;;;;;13.13;11.77;;;22.80;69.00;;;;;;5115939;28;20031;-80
2023/09/09 08:06:02;;;;;;;16.05;14.35;;;22.90;69.00;;;;;;5116227;28;20034;-79
2023/09/09 08:08:29;;;;;;;15.18;13.57;;;22.80;68.90;;;;;;5098507;28;20042;-78
2023/09/09 08:10:55;;;;;;;16.58;14.80;;;22.90;68.90;;;;;;5097755;28;20093;-79
2023/09/09 08:13:20;;;;;;;15.77;14.13;;;22.90;68.90;;;;;;5080705;28;20035;-78
2023/09/09 08:15:46;;;;;;;17.08;14.73;;;22.90;68.90;;;;;;5098439;28;20028;-78
2023/09/09 08:18:13;;;;;;;16.58;14.82;;;23.00;69.00;;;;;;5099698;28;20392;-79
2023/09/09 08:20:39;;;;;;;15.70;14.07;;;23.00;68.90;;;;;;5083185;28;20026;-79
2023/09/09 08:23:05;;;;;;;16.58;14.88;;;23.00;68.90;;;;;;5100018;28;20028;-79
2023/09/09 08:25:33;;;;;;;16.00;14.30;;;23.00;68.90;;;;;;5116804;28;20032;-79
2023/09/09 08:28:01;;;;;;;15.25;13.63;;;23.00;68.90;;;;;;5097484;28;20387;-79
2023/09/09 08:30:30;;;;;;;15.60;13.98;;;23.10;68.90;;;;;;5115613;28;20032;-79
2023/09/09 08:32:56;;;;;;;16.55;14.77;;;23.10;68.90;;;;;;5115592;28;20028;-79
2023/09/09 08:35:23;;;;;;;15.32;13.70;;;23.10;68.80;;;;;;5097020;28;20030;-80
2023/09/09 08:37:49;;;;;;;16.17;14.45;;;23.10;68.80;;;;;;5097893;28;20024;-80
2023/09/09 08:40:15;;;;;;;15.57;13.95;;;23.20;68.80;;;;;;5080160;28;20039;-79
2023/09/09 08:43:13;;;;;;;15.30;13.68;;;23.20;68.80;;;;;;5080594;28;20468;-79
2023/09/09 08:46:00;;;;;;;15.38;13.25;;;23.20;68.80;;;;;;5080461;28;20446;-79
2023/09/09 08:48:28;;;;;;;15.60;14.00;;;23.30;68.70;;;;;;5096547;28;20055;-79
2023/09/09 08:50:57;;;;;;;15.40;13.75;;;23.30;68.60;;;;;;5115473;28;20516;-80
2023/09/09 08:53:27;;;;;;;15.38;13.75;;;23.40;68.60;;;;;;5079912;28;20035;-80
2023/09/09 08:55:55;;;;;;;15.95;14.25;;;23.40;68.50;;;;;;5080232;28;20395;-79
2023/09/09 08:58:21;;;;;;;14.93;12.77;;;23.40;68.40;;;;;;5115415;28;20092;-80
2023/09/09 09:00:47;;;;;;;14.77;13.20;;;23.50;68.40;;;;;;5097089;28;20413;-80
2023/09/09 09:03:14;;;;;;;14.85;13.30;;;23.50;68.20;;;;;;5096911;28;20110;-79
2023/09/09 09:05:42;;;;;;;15.10;13.05;;;23.60;68.20;;;;;;5114964;28;20020;-79
2023/09/09 09:08:09;;;;;;;14.60;13.05;;;23.70;68.10;;;;;;5097058;28;20028;-78
2023/09/09 09:10:37;;;;;;;14.52;13.02;;;23.70;68.10;;;;;;5079434;28;20035;-78
2023/09/09 09:13:03;;;;;;;15.00;13.43;;;23.80;68.00;;;;;;5097004;28;20106;-79
2023/09/09 09:15:32;;;;;;;15.38;12.68;;;23.80;67.90;;;;;;5114369;28;20032;-79
2023/09/09 09:18:01;;;;;;;14.52;13.02;;;23.90;67.90;;;;;;5080016;28;20605;-78
2023/09/09 09:20:33;;;;;;;14.50;12.95;;;24.00;67.80;;;;;;5079624;28;20496;-79
2023/09/09 09:23:05;;;;;;;14.93;13.23;;;24.00;67.70;;;;;;5079740;28;20080;-78
2023/09/09 09:25:37;;;;;;;15.02;13.43;;;24.10;67.60;;;;;;5079376;28;20061;-79
2023/09/09 09:28:04;;;;;;;14.88;13.27;;;24.20;67.60;;;;;;5113942;28;20036;-79
2023/09/09 09:30:31;;;;;;;14.15;12.48;;;24.20;67.50;;;;;;5095941;28;20115;-78
2023/09/09 09:32:57;;;;;;;14.63;13.10;;;24.30;67.50;;;;;;5079427;28;20110;-79
2023/09/09 09:35:30;;;;;;;14.25;12.73;;;24.40;67.50;;;;;;5114539;28;20058;-80
2023/09/09 09:37:57;;;;;;;14.18;12.68;;;24.40;67.50;;;;;;5079375;28;20024;-79
2023/09/09 09:40:23;;;;;;;13.63;12.23;;;24.50;67.40;;;;;;5096126;28;20138;-79
2023/09/09 09:42:50;;;;;;;13.93;12.45;;;24.60;67.40;;;;;;5096195;28;20023;-78
2023/09/09 09:45:16;;;;;;;14.27;12.73;;;24.60;67.40;;;;;;5114767;28;20059;-78
2023/09/09 09:47:47;;;;;;;16.70;14.90;;;24.70;67.50;;;;;;5079079;28;20063;-78
2023/09/09 09:50:30;;;;;;;14.60;13.10;;;24.80;67.50;;;;;;5079014;28;20148;-78
2023/09/09 09:53:01;;;;;;;13.45;12.05;;;24.80;67.50;;;;;;5079289;28;20027;-79
2023/09/09 09:55:28;;;;;;;12.77;11.40;;;25.00;67.50;;;;;;5078990;28;20028;-78
2023/09/09 09:57:59;;;;;;;13.95;12.02;;;25.10;67.60;;;;;;5078714;28;20047;-79
2023/09/09 10:00:26;;;;;;;14.40;12.45;;;25.10;67.60;;;;;;5114139;28;20460;-79
2023/09/09 10:03:00;;;;;;;15.48;13.77;;;25.20;67.60;;;;;;5078840;28;20027;-78
2023/09/09 10:05:33;;;;;;;13.45;12.02;;;25.30;67.70;;;;;;5095116;28;20035;-80
2023/09/09 10:08:19;;;;;;;13.50;12.05;;;25.40;67.80;;;;;;5078848;28;20383;-79
2023/09/09 10:11:18;;;;;;;12.57;11.30;;;25.50;67.90;;;;;;5078436;28;20104;-79
2023/09/09 10:13:56;;;;;;;13.20;11.82;;;25.60;68.00;;;;;;5110869;28;20057;-79
2023/09/09 10:16:22;;;;;;;12.30;11.00;;;25.70;68.00;;;;;;5095601;28;20032;-79
2023/09/09 10:18:52;;;;;;;13.25;11.80;;;25.80;68.10;;;;;;5113616;28;20035;-80
2023/09/09 10:21:19;;;;;;;12.52;11.23;;;25.80;68.30;;;;;;5095348;28;20031;-79
2023/09/09 10:23:47;;;;;;;12.55;11.25;;;25.90;68.30;;;;;;5113139;28;20055;-79
2023/09/09 10:26:16;;;;;;;12.68;11.27;;;26.00;68.40;;;;;;5095366;28;20108;-78
2023/09/09 10:28:43;;;;;;;11.73;10.48;;;26.10;68.50;;;;;;5112961;28;20134;-78
2023/09/09 10:31:12;;;;;;;12.32;11.10;;;26.20;68.50;;;;;;5095344;28;20035;-79
2023/09/09 10:33:42;;;;;;;12.07;10.63;;;26.30;68.60;;;;;;5078622;28;20089;-79
2023/09/09 10:36:08;;;;;;;12.25;11.00;;;26.40;68.70;;;;;;5113483;28;20031;-78
2023/09/09 10:38:34;;;;;;;11.02;9.85;;;26.40;68.70;;;;;;5113109;28;20035;-79
2023/09/09 10:41:02;;;;;;;11.98;10.25;;;26.60;69.00;;;;;;5078188;28;20537;-78
2023/09/09 10:43:29;;;;;;;10.30;9.20;;;26.60;69.00;;;;;;5095048;28;20031;-79
2023/09/09 10:45:54;;;;;;;11.30;10.10;;;26.70;69.00;;;;;;5113311;28;20090;-79
2023/09/09 10:48:21;;;;;;;10.35;8.88;;;26.80;69.10;;;;;;5094569;28;20467;-79
2023/09/09 10:50:52;;;;;;;10.52;9.45;;;26.90;69.20;;;;;;5113011;28;20100;-79
2023/09/09 10:53:22;;;;;;;10.10;8.70;;;26.90;69.40;;;;;;5077995;28;20123;-79
2023/09/09 10:55:53;;;;;;;9.55;8.23;;;27.00;69.50;;;;;;5113014;28;20131;-79
2023/09/09 10:58:20;;;;;;;9.35;8.35;;;27.10;69.60;;;;;;5113029;28;20119;-79
2023/09/09 11:00:49;;;;;;;10.18;9.18;;;27.10;69.80;;;;;;5078079;28;20126;-78
2023/09/09 11:03:21;;;;;;;10.60;9.52;;;27.20;70.10;;;;;;5095133;28;20081;-79
2023/09/09 11:06:07;;;;;;;10.10;9.10;;;27.20;70.30;;;;;;5077774;28;20041;-79
2023/09/09 11:08:38;;;;;;;10.75;9.65;;;27.30;70.60;;;;;;5112412;28;20023;-79
2023/09/09 11:11:08;;;;;;;10.43;8.93;;;27.30;70.50;;;;;;5112769;28;20039;-78
2023/09/09 11:13:41;;;;;;;9.35;8.38;;;27.40;70.80;;;;;;5112848;28;20050;-79
2023/09/09 11:16:07;;;;;;;9.25;8.27;;;27.40;71.10;;;;;;5112746;28;20028;-79
2023/09/09 11:18:35;;;;;;;8.70;7.60;;;27.50;71.20;;;;;;5077855;28;20032;-79
2023/09/09 11:21:01;;;;;;;8.85;7.90;;;27.50;71.50;;;;;;5078264;28;20034;-79
2023/09/09 11:23:28;;;;;;;9.18;8.15;;;27.60;71.70;;;;;;5115461;28;20035;-79
2023/09/09 11:25:56;;;;;;;9.00;8.10;;;27.60;72.00;;;;;;5096492;28;20027;-78
2023/09/09 11:28:23;;;;;;;9.25;7.90;;;27.60;72.30;;;;;;5097347;28;20032;-78
2023/09/09 11:30:49;;;;;;;8.48;7.57;;;27.70;72.60;;;;;;5113029;28;20024;-78
2023/09/09 11:33:25;;;;;;;8.75;7.68;;;27.70;72.70;;;;;;5094628;28;20035;-78
2023/09/09 11:35:51;;;;;;;8.35;7.38;;;27.70;73.00;;;;;;5077492;28;20380;-78
2023/09/09 11:38:17;;;;;;;7.70;6.85;;;27.80;73.10;;;;;;5077961;28;20031;-78
2023/09/09 11:40:45;;;;;;;7.78;6.78;;;27.80;73.20;;;;;;5094386;28;20081;-78
2023/09/09 11:43:14;;;;;;;7.10;6.03;;;27.80;73.40;;;;;;5094589;28;20103;-78
2023/09/09 11:45:40;;;;;;;7.15;6.13;;;27.80;73.50;;;;;;5112233;28;20081;-78
2023/09/09 11:48:09;;;;;;;6.85;6.07;;;27.80;73.50;;;;;;5112461;28;20024;-79
2023/09/09 11:50:39;;;;;;;6.80;6.00;;;27.90;73.70;;;;;;5094536;28;20070;-81
2023/09/09 11:53:05;;;;;;;6.65;5.88;;;27.90;73.90;;;;;;5080992;28;20028;-79
2023/09/09 11:55:31;;;;;;;6.57;5.88;;;27.90;73.90;;;;;;5081347;28;20031;-79
2023/09/09 11:57:56;;;;;;;6.75;5.95;;;28.00;74.00;;;;;;5097820;28;20036;-79
2023/09/09 12:00:22;;;;;;;6.50;5.78;;;28.00;74.00;;;;;;5097918;28;20472;-79
2023/09/09 12:02:48;;;;;;;5.97;5.35;;;28.00;74.00;;;;;;5115869;28;20027;-78
2023/09/09 12:05:15;;;;;;;6.28;5.60;;;28.00;74.10;;;;;;5098587;28;20468;-79
2023/09/09 12:07:42;;;;;;;5.65;4.93;;;28.00;74.10;;;;;;5097725;28;20122;-79
2023/09/09 12:10:14;;;;;;;5.95;4.82;;;28.10;74.20;;;;;;5080947;28;20036;-78
2023/09/09 12:12:41;;;;;;;5.82;5.22;;;28.10;74.20;;;;;;5116076;28;20035;-78
2023/09/09 12:15:08;;;;;;;5.63;4.70;;;28.10;74.10;;;;;;5097856;28;20032;-78
2023/09/09 12:17:36;;;;;;;5.90;5.22;;;28.10;74.00;;;;;;5116290;28;20162;-78
2023/09/09 12:20:08;;;;;;;5.32;4.72;;;28.10;73.90;;;;;;5080647;28;20024;-78
2023/09/09 12:22:36;;;;;;;5.53;4.65;;;28.10;73.80;;;;;;5081591;28;20031;-78
2023/09/09 12:25:26;;;;;;;5.80;4.72;;;28.20;73.60;;;;;;5097396;28;20035;-78
2023/09/09 12:27:52;;;;;;;5.47;4.25;;;28.20;73.30;;;;;;5080498;28;20486;-79
2023/09/09 12:30:38;;;;;;;5.07;4.57;;;28.20;73.00;;;;;;5080672;28;20036;-78
2023/09/09 12:33:05;;;;;;;5.78;4.78;;;28.20;72.60;;;;;;5097407;28;20039;-78
2023/09/09 12:35:42;;;;;;;6.03;4.63;;;28.20;72.30;;;;;;5097855;28;20027;-78
2023/09/09 12:38:10;;;;;;;4.72;4.10;;;28.20;72.20;;;;;;5097251;28;20032;-78
2023/09/09 12:40:50;;;;;;;4.53;3.92;;;28.20;72.00;;;;;;5080845;28;20023;-77